createdAt,value
2022-09-06T00:01:17.230Z,3.35
2022-09-06T00:04:20.234Z,3.37
2022-09-06T00:07:22.745Z,3.42
2022-09-06T00:10:26.483Z,4.03
2022-09-06T00:13:29.300Z,3.60
2022-09-06T00:16:32.117Z,3.60
2022-09-06T00:19:34.749Z,3.75
2022-09-06T00:22:38.604Z,3.60
2022-09-06T00:25:41.830Z,3.80
2022-09-06T00:28:45.100Z,4.00
2022-09-06T00:31:47.622Z,3.28
2022-09-06T00:34:50.347Z,3.70
2022-09-06T00:37:58.025Z,3.47
2022-09-06T00:41:01.230Z,3.50
2022-09-06T00:44:04.166Z,3.37
2022-09-06T00:47:08.495Z,3.50
2022-09-06T00:50:13.842Z,3.37
2022-09-06T00:53:17.535Z,3.20
2022-09-06T00:56:20.139Z,3.15
2022-09-06T00:59:25.680Z,3.12
2022-09-06T01:02:28.333Z,2.80
2022-09-06T01:05:43.350Z,3.30
2022-09-06T01:09:18.426Z,3.25
2022-09-06T01:12:55.666Z,3.25
2022-09-06T01:16:01.073Z,2.90
2022-09-06T01:19:31.502Z,2.97
2022-09-06T01:26:01.075Z,3.17
2022-09-06T01:29:11.166Z,3.28
2022-09-06T01:32:23.958Z,2.80
2022-09-06T01:35:26.434Z,2.97
2022-09-06T01:38:29.514Z,2.80
2022-09-06T01:41:32.842Z,3.03
2022-09-06T01:44:37.746Z,2.80
2022-09-06T01:47:54.536Z,3.78
2022-09-06T01:51:32.336Z,3.50
2022-09-06T01:55:00.254Z,3.35
2022-09-06T01:58:38.929Z,3.08
2022-09-06T02:01:44.600Z,3.22
2022-09-06T02:05:01.416Z,3.92
2022-09-06T02:08:16.236Z,3.80
2022-09-06T02:11:19.186Z,3.55
2022-09-06T02:14:36.158Z,3.08
2022-09-06T02:17:43.206Z,3.75
2022-09-06T02:20:51.028Z,3.37
2022-09-06T02:23:57.109Z,3.17
2022-09-06T02:26:59.657Z,3.30
2022-09-06T02:30:03.167Z,3.50
2022-09-06T02:33:16.359Z,3.30
2022-09-06T02:36:19.500Z,3.20
2022-09-06T02:39:22.102Z,3.55
2022-09-06T02:42:25.198Z,3.37
2022-09-06T02:45:27.739Z,3.50
2022-09-06T02:48:30.514Z,3.80
2022-09-06T02:51:38.356Z,3.33
2022-09-06T02:54:41.126Z,3.80
2022-09-06T02:57:43.866Z,3.62
2022-09-06T03:00:46.693Z,3.92
2022-09-06T03:03:49.314Z,3.37
2022-09-06T03:06:52.074Z,3.45
2022-09-06T03:09:56.937Z,3.40
2022-09-06T03:13:00.044Z,3.62
2022-09-06T03:16:02.903Z,3.72
2022-09-06T03:19:05.667Z,3.62
2022-09-06T03:22:08.307Z,3.65
2022-09-06T03:25:11.388Z,3.80
2022-09-06T03:28:13.968Z,3.55
2022-09-06T03:31:16.904Z,3.58
2022-09-06T03:34:19.384Z,3.67
2022-09-06T03:37:22.132Z,3.90
2022-09-06T03:40:25.029Z,3.78
2022-09-06T03:43:28.254Z,3.87
2022-09-06T03:46:30.949Z,3.65
2022-09-06T03:49:33.641Z,3.90
2022-09-06T03:52:36.220Z,3.55
2022-09-06T03:55:39.540Z,3.20
2022-09-06T03:58:42.073Z,3.75
2022-09-06T04:01:44.917Z,3.83
2022-09-06T04:04:47.769Z,3.40
2022-09-06T04:07:50.269Z,3.60
2022-09-06T04:10:54.979Z,3.53
2022-09-06T04:13:57.489Z,3.60
2022-09-06T04:17:00.409Z,4.05
2022-09-06T04:20:03.825Z,3.80
2022-09-06T04:23:07.441Z,3.67
2022-09-06T04:26:10.041Z,3.58
2022-09-06T04:29:13.011Z,3.67
2022-09-06T04:32:15.511Z,4.20
2022-09-06T04:35:18.358Z,3.70
2022-09-06T04:38:21.157Z,3.70
2022-09-06T04:41:23.931Z,3.78
2022-09-06T04:44:26.481Z,3.75
2022-09-06T04:47:29.739Z,3.53
2022-09-06T04:50:32.632Z,3.80
2022-09-06T04:53:40.720Z,21.98
2022-09-06T04:56:43.234Z,6.18
2022-09-06T04:59:46.065Z,3.35
2022-09-06T05:02:48.580Z,3.37
2022-09-06T05:05:51.465Z,3.72
2022-09-06T05:08:54.310Z,3.70
2022-09-06T05:11:57.828Z,3.72
2022-09-06T05:15:00.492Z,4.25
2022-09-06T05:18:04.974Z,4.00
2022-09-06T05:21:07.838Z,3.42
2022-09-06T05:24:10.837Z,4.03
2022-09-06T05:27:14.275Z,3.60
2022-09-06T05:30:18.179Z,4.28
2022-09-06T05:33:22.692Z,4.10
2022-09-06T05:36:26.669Z,4.57
2022-09-06T05:39:29.175Z,4.40
2022-09-06T05:42:32.032Z,4.00
2022-09-06T05:45:34.663Z,4.12
2022-09-06T05:48:37.728Z,3.90
2022-09-06T05:51:40.845Z,3.78
2022-09-06T05:54:43.731Z,3.92
2022-09-06T05:57:46.544Z,3.80
2022-09-06T06:00:49.169Z,4.22
2022-09-06T06:03:57.856Z,3.50
2022-09-06T06:07:00.359Z,3.55
2022-09-06T06:10:04.397Z,3.87
2022-09-06T06:13:07.543Z,3.40
2022-09-06T06:16:16.448Z,3.90
2022-09-06T06:19:19.030Z,3.80
2022-09-06T06:22:21.918Z,4.05
2022-09-06T06:25:26.277Z,3.40
2022-09-06T06:28:29.209Z,3.37
2022-09-06T06:31:33.416Z,3.25
2022-09-06T06:34:36.267Z,3.10
2022-09-06T06:37:38.683Z,3.37
2022-09-06T06:40:45.833Z,3.22
2022-09-06T06:43:48.361Z,3.33
2022-09-06T06:46:52.118Z,3.05
2022-09-06T06:49:54.907Z,3.03
2022-09-06T06:52:57.697Z,2.67
2022-09-06T06:56:00.296Z,2.80
2022-09-06T06:59:05.557Z,2.67
2022-09-06T07:02:08.392Z,2.50
2022-09-06T07:08:34.557Z,2.87
2022-09-06T07:11:37.240Z,2.80
2022-09-06T07:14:40.218Z,2.55
2022-09-06T07:17:44.101Z,2.65
2022-09-06T07:24:10.267Z,2.47
2022-09-06T07:30:37.451Z,2.67
2022-09-06T07:33:40.179Z,2.70
2022-09-06T07:36:42.942Z,2.53
2022-09-06T07:39:45.587Z,2.65
2022-09-06T07:42:48.602Z,2.78
2022-09-06T07:46:14.077Z,2.62
2022-09-06T07:49:16.858Z,2.67
2022-09-06T07:55:44.838Z,2.58
2022-09-06T07:58:48.310Z,3.12
2022-09-06T08:01:53.292Z,2.30
2022-09-06T08:04:56.849Z,2.60
2022-09-06T08:11:24.731Z,2.60
2022-09-06T08:14:29.190Z,2.67
2022-09-06T08:17:35.953Z,2.40
2022-09-06T08:20:40.856Z,2.40
2022-09-06T08:23:52.981Z,2.50
2022-09-06T08:26:55.562Z,2.60
2022-09-06T08:29:58.491Z,2.83
2022-09-06T08:33:01.555Z,2.58
2022-09-06T08:36:05.864Z,2.42
2022-09-06T08:39:10.360Z,2.70
2022-09-06T08:42:13.467Z,2.50
2022-09-06T08:45:19.683Z,2.60
2022-09-06T08:48:32.159Z,3.00
2022-09-06T08:51:50.609Z,2.70
2022-09-06T08:55:03.057Z,2.45
2022-09-06T08:58:58.034Z,2.42
2022-09-06T09:02:14.489Z,3.75
2022-09-06T09:05:37.283Z,3.08
2022-09-06T09:09:12.968Z,2.50
2022-09-06T09:12:22.575Z,2.65
2022-09-06T09:15:25.609Z,3.03
2022-09-06T09:18:33.641Z,3.20
2022-09-06T09:21:38.848Z,3.12
2022-09-06T09:24:44.127Z,2.80
2022-09-06T09:27:57.301Z,3.40
2022-09-06T09:31:00.712Z,2.80
2022-09-06T09:34:05.511Z,2.83
2022-09-06T09:40:48.945Z,3.10
2022-09-06T09:44:03.713Z,2.95
2022-09-06T09:47:28.710Z,3.17
2022-09-06T09:50:34.839Z,3.30
2022-09-06T09:53:50.563Z,4.20
2022-09-06T09:56:54.310Z,2.87
2022-09-06T10:00:06.606Z,3.22
2022-09-06T10:03:19.133Z,3.12
2022-09-06T10:10:02.465Z,2.93
2022-09-06T10:13:23.389Z,2.78
2022-09-06T10:16:43.675Z,3.90
2022-09-06T10:19:47.401Z,3.20
2022-09-06T10:23:11.595Z,2.85
2022-09-06T10:26:43.618Z,6.15
2022-09-06T10:30:04.233Z,3.47
2022-09-06T10:33:27.834Z,2.72
2022-09-06T10:37:01.274Z,2.70
2022-09-06T10:40:09.880Z,2.85
2022-09-06T10:43:18.991Z,2.50
2022-09-06T10:46:25.897Z,2.40
2022-09-06T10:49:29.325Z,2.37
2022-09-06T10:52:38.612Z,2.72
2022-09-06T10:55:47.815Z,2.67
2022-09-06T11:02:48.945Z,2.33
2022-09-06T11:05:59.476Z,2.00
2022-09-06T11:09:41.639Z,2.33
2022-09-06T11:13:08.514Z,2.37
2022-09-06T11:16:24.767Z,1.98
2022-09-06T11:19:33.762Z,1.90
2022-09-06T11:22:50.248Z,1.95
2022-09-06T11:26:29.100Z,1.90
2022-09-06T11:29:34.824Z,2.00
2022-09-06T11:32:51.618Z,1.87
2022-09-06T11:36:14.689Z,1.80
2022-09-06T11:43:03.148Z,1.90
2022-09-06T11:46:05.842Z,2.10
2022-09-06T11:49:29.263Z,2.03
2022-09-06T11:52:59.202Z,2.20
2022-09-06T11:56:02.090Z,2.10
2022-09-06T11:59:27.234Z,2.20
2022-09-06T12:02:41.072Z,2.00
2022-09-06T12:06:15.315Z,1.65
2022-09-06T12:09:35.567Z,1.60
2022-09-06T12:12:46.229Z,1.37
2022-09-06T12:15:54.562Z,1.60
2022-09-06T12:18:59.086Z,1.70
2022-09-06T12:22:02.836Z,1.30
2022-09-06T12:25:34.189Z,1.60
2022-09-06T12:28:46.959Z,1.30
2022-09-06T12:32:01.644Z,1.17
2022-09-06T12:38:31.767Z,1.20
2022-09-06T12:41:43.298Z,1.17
2022-09-06T12:44:49.861Z,1.40
2022-09-06T12:48:05.030Z,1.50
2022-09-06T12:51:16.200Z,1.20
2022-09-06T12:54:26.326Z,1.27
2022-09-06T12:57:29.718Z,1.33
2022-09-06T13:00:54.633Z,1.23
2022-09-06T13:04:22.352Z,1.20
2022-09-06T13:07:27.142Z,1.73
2022-09-06T13:10:31.245Z,1.23
2022-09-06T13:13:33.868Z,1.20
2022-09-06T13:16:42.614Z,1.10
2022-09-06T13:19:45.750Z,1.12
2022-09-06T13:22:51.035Z,1.30
2022-09-06T13:25:55.696Z,1.00
2022-09-06T13:29:10.588Z,1.42
2022-09-06T13:32:14.631Z,1.62
2022-09-06T13:35:26.473Z,1.20
2022-09-06T13:38:39.844Z,1.50
2022-09-06T13:41:42.904Z,1.58
2022-09-06T13:44:45.382Z,1.27
2022-09-06T13:47:48.219Z,1.33
2022-09-06T13:50:50.693Z,1.62
2022-09-06T13:54:06.314Z,1.60
2022-09-06T13:57:09.939Z,1.65
2022-09-06T14:00:13.872Z,1.50
2022-09-06T14:03:25.623Z,1.60
2022-09-06T14:06:28.448Z,2.10
2022-09-06T14:09:31.424Z,2.00
2022-09-06T14:12:37.111Z,1.83
2022-09-06T14:15:41.174Z,1.73
2022-09-06T14:18:45.114Z,2.12
2022-09-06T14:21:48.166Z,2.30
2022-09-06T14:24:50.945Z,2.10
2022-09-06T14:27:53.823Z,1.90
2022-09-06T14:30:56.590Z,2.20
2022-09-06T14:34:03.476Z,2.05
2022-09-06T14:37:09.254Z,2.00
2022-09-06T14:40:16.859Z,2.10
2022-09-06T14:43:19.766Z,2.20
2022-09-06T14:46:24.328Z,2.00
2022-09-06T14:49:27.218Z,1.90
2022-09-06T14:52:30.076Z,2.90
2022-09-06T14:55:32.621Z,1.60
2022-09-06T14:58:37.530Z,2.10
2022-09-06T15:01:41.179Z,2.05
2022-09-06T15:04:44.015Z,2.45
2022-09-06T15:07:46.972Z,3.22
2022-09-06T15:10:54.920Z,3.03
2022-09-06T15:13:58.757Z,2.40
2022-09-06T15:17:03.188Z,2.50
2022-09-06T15:20:06.270Z,2.15
2022-09-06T15:23:35.456Z,2.25
2022-09-06T15:26:33.569Z,3.60
2022-09-06T15:29:39.434Z,2.33
2022-09-06T15:32:42.938Z,2.70
2022-09-06T15:35:54.796Z,2.30
2022-09-06T15:39:01.097Z,2.15
2022-09-06T15:42:04.545Z,2.55
2022-09-06T15:45:09.370Z,2.20
2022-09-06T15:48:15.945Z,2.17
2022-09-06T15:51:20.624Z,2.25
2022-09-06T15:54:43.432Z,2.37
2022-09-06T15:57:46.824Z,2.30
2022-09-06T16:01:11.269Z,2.65
2022-09-06T16:04:14.166Z,2.10
2022-09-06T16:07:18.544Z,1.73
2022-09-06T16:10:23.622Z,2.20
2022-09-06T16:13:33.295Z,2.20
2022-09-06T16:16:36.494Z,2.53
2022-09-06T16:19:39.928Z,2.53
2022-09-06T16:22:42.885Z,2.80
2022-09-06T16:25:55.360Z,2.95
2022-09-06T16:28:58.809Z,2.50
2022-09-06T16:32:01.299Z,2.60
2022-09-06T16:35:05.867Z,2.30
2022-09-06T16:38:09.431Z,2.62
2022-09-06T16:41:19.303Z,2.80
2022-09-06T16:44:21.926Z,2.50
2022-09-06T16:47:24.921Z,2.60
2022-09-06T16:50:27.681Z,2.85
2022-09-06T16:53:30.564Z,2.92
2022-09-06T16:56:35.833Z,2.83
2022-09-06T16:59:39.300Z,2.97
2022-09-06T17:02:47.140Z,3.12
2022-09-06T17:05:52.133Z,2.78
2022-09-06T17:08:59.363Z,2.95
2022-09-06T17:12:05.041Z,3.17
2022-09-06T17:15:11.216Z,3.10
2022-09-06T17:18:15.252Z,3.22
2022-09-06T17:21:18.994Z,3.30
2022-09-06T17:24:23.537Z,3.17
2022-09-06T17:27:27.022Z,3.15
2022-09-06T17:30:39.780Z,3.42
2022-09-06T17:33:42.522Z,3.80
2022-09-06T17:36:45.410Z,3.90
2022-09-06T17:39:48.097Z,3.78
2022-09-06T17:42:52.181Z,3.92
2022-09-06T17:45:54.759Z,3.80
2022-09-06T17:48:58.281Z,3.80
2022-09-06T17:52:00.745Z,3.97
2022-09-06T17:55:04.805Z,3.70
2022-09-06T17:58:08.410Z,4.18
2022-09-06T18:01:14.022Z,4.28
2022-09-06T18:04:17.595Z,4.45
2022-09-06T18:07:20.198Z,4.22
2022-09-06T18:10:23.255Z,4.45
2022-09-06T18:13:25.770Z,3.83
2022-09-06T18:16:30.664Z,4.00
2022-09-06T18:19:33.803Z,4.78
2022-09-06T18:22:38.770Z,4.12
2022-09-06T18:25:41.367Z,4.35
2022-09-06T18:28:44.482Z,4.35
2022-09-06T18:31:47.643Z,3.83
2022-09-06T18:34:51.736Z,4.12
2022-09-06T18:37:54.195Z,4.05
2022-09-06T18:40:59.166Z,3.90
2022-09-06T18:44:03.633Z,4.03
2022-09-06T18:47:09.278Z,4.12
2022-09-06T18:50:12.452Z,3.90
2022-09-06T18:53:18.228Z,3.50
2022-09-06T18:56:20.939Z,3.35
2022-09-06T18:59:24.389Z,3.28
2022-09-06T19:02:28.513Z,3.47
2022-09-06T19:05:34.073Z,3.50
2022-09-06T19:08:37.173Z,3.37
2022-09-06T19:11:41.673Z,3.60
2022-09-06T19:14:44.257Z,3.00
2022-09-06T19:17:49.016Z,3.47
2022-09-06T19:21:02.732Z,3.30
2022-09-06T19:24:08.376Z,3.65
2022-09-06T19:27:12.152Z,3.58
2022-09-06T19:30:15.485Z,3.50
2022-09-06T19:33:18.335Z,3.40
2022-09-06T19:36:22.882Z,3.40
2022-09-06T19:39:32.362Z,3.58
2022-09-06T19:42:38.159Z,3.80
2022-09-06T19:45:41.453Z,3.50
2022-09-06T19:48:48.239Z,4.00
2022-09-06T19:51:51.321Z,3.92
2022-09-06T19:54:54.163Z,3.80
2022-09-06T19:57:57.763Z,3.62
2022-09-06T20:01:01.058Z,3.75
2022-09-06T20:04:07.046Z,4.07
2022-09-06T20:07:09.580Z,3.95
2022-09-06T20:10:13.426Z,4.07
2022-09-06T20:13:16.014Z,3.97
2022-09-06T20:16:20.969Z,4.00
2022-09-06T20:19:23.708Z,4.10
2022-09-06T20:22:26.730Z,4.15
2022-09-06T20:25:29.294Z,4.45
2022-09-06T20:28:33.180Z,4.43
2022-09-06T20:31:37.600Z,4.40
2022-09-06T20:34:41.426Z,5.12
2022-09-06T20:37:44.090Z,5.00
2022-09-06T20:40:47.026Z,4.43
2022-09-06T20:43:57.706Z,4.43
2022-09-06T20:47:01.038Z,5.05
2022-09-06T20:50:03.870Z,4.68
2022-09-06T20:53:06.951Z,4.80
2022-09-06T20:56:16.996Z,4.50
2022-09-06T20:59:19.803Z,4.90
2022-09-06T21:02:22.380Z,4.68
2022-09-06T21:05:25.236Z,5.12
2022-09-06T21:08:30.680Z,4.60
2022-09-06T21:11:37.357Z,4.62
2022-09-06T21:14:39.837Z,4.93
2022-09-06T21:17:42.635Z,4.45
2022-09-06T21:21:00.014Z,4.57
2022-09-06T21:24:04.904Z,4.72
2022-09-06T21:27:07.451Z,5.53
2022-09-06T21:30:11.123Z,5.97
2022-09-06T21:33:14.253Z,5.72
2022-09-06T21:36:19.620Z,5.87
2022-09-06T21:39:22.156Z,5.90
2022-09-06T21:42:24.938Z,6.35
2022-09-06T21:45:27.472Z,5.85
2022-09-06T21:48:30.870Z,5.93
2022-09-06T21:51:34.074Z,5.72
2022-09-06T21:54:36.875Z,5.65
2022-09-06T21:57:39.355Z,5.68
2022-09-06T22:00:42.937Z,5.95
2022-09-06T22:03:46.649Z,5.65
2022-09-06T22:06:49.249Z,5.68
2022-09-06T22:09:52.217Z,6.03
2022-09-06T22:12:55.463Z,5.50
2022-09-06T22:16:05.631Z,5.57
2022-09-06T22:19:11.882Z,6.28
2022-09-06T22:22:14.731Z,6.40
2022-09-06T22:25:17.299Z,6.25
2022-09-06T22:28:20.188Z,6.37
2022-09-06T22:31:24.240Z,5.90
2022-09-06T22:34:27.122Z,6.20
2022-09-06T22:37:29.661Z,6.10
2022-09-06T22:40:32.350Z,6.20
2022-09-06T22:43:35.211Z,6.20
2022-09-06T22:46:38.619Z,6.28
2022-09-06T22:49:41.193Z,6.07
2022-09-06T22:52:44.015Z,6.25
2022-09-06T22:55:48.027Z,6.05
2022-09-06T22:58:50.811Z,6.10
2022-09-06T23:01:53.397Z,6.35
2022-09-06T23:04:56.395Z,6.50
2022-09-06T23:08:01.655Z,6.70
2022-09-06T23:11:08.073Z,6.85
2022-09-06T23:14:10.840Z,6.50
2022-09-06T23:17:14.779Z,6.22
2022-09-06T23:20:17.974Z,6.45
2022-09-06T23:23:20.760Z,6.45
2022-09-06T23:26:27.560Z,6.60
2022-09-06T23:29:31.636Z,6.47
2022-09-06T23:32:34.194Z,6.43
2022-09-06T23:35:38.815Z,6.90
2022-09-06T23:38:44.634Z,6.90
2022-09-06T23:41:47.405Z,7.00
2022-09-06T23:44:54.376Z,6.82
2022-09-06T23:47:57.166Z,6.95
2022-09-06T23:51:00.039Z,6.60
2022-09-06T23:54:03.682Z,6.80
2022-09-06T23:57:06.366Z,7.30
